LFKCLFKB

Guest
Details From LFKC - St Catherine
To LFKB - Bastia Poretta
Flight Number -
Tags generated
Created
Modified
Stats Distance 32 nm / 59 km
Max Altitude 200 ft / 61 m
Waypoints 3
Social Downloads 3
Likes 0
Share VATSIM

Download

Looking for another format? Having issues loading an existing format? Contact us
Advertisement - Login to hide

Notes

Basic altitude profile: - Ascent Rate: 2500ft/min - Ascent Speed: 250kts - Cruise Altitude: 35000ft - Cruise Speed: 420kts - Descent Rate: 1500ft/min - Descent Speed: 250kts

Route

LFKC BTA LFKB

ID Type Via Altitude Latitude Longitude Leg Dist Tot Dist Heading (true) Name
O LFKC APT - 0 ft / 0 m 42.53076˚ 8.79293˚ - 0 nm - St Catherine
BTA VOR - 200 ft / 61 m 42.57369˚ 9.47459˚ 30 nm 30 nm 85° / 85° BASTIA PORETTA VOR-DME
O LFKB APT - 0 ft / 0 m 42.55251˚ 9.48371˚ 1 nm 31 nm 162° / 162° Bastia Poretta

Altitude Profile

Advertisement - Login to hide

LFKC

Details ICAO LFKC (CLY)
Name St Catherine
Region France
Timezone Europe/Paris (UTC+2.0)
Stats Elevation 208 ft / 63 m (AMSL)
Location 42.530762° 8.792925°
Runways 1
Magnetic Variation 2.389° E

METAR

LFKC 211100Z AUTO 33006KT 290V360 9999 FEW028 SCT100 BKN140 21/17 Q1011 TEMPO 4000 TSRA SCT015 SCT030CB BKN040

Decode

TAF

TAF LFKC 210800Z 2109/2209 34007KT 9999 SCT040 BKN060 TEMPO 2109/2118 SHRA FEW025 BKN040TCU BKN050 PROB40 TEMPO 2112/2121 4000 TSRA SCT015 SCT030CB BKN040 BECMG 2119/2121 18004KT TX22/2111Z TN13/2204Z

Decode

Departure Runways

ID Width Length Bearing (true) Bearing (mag) Surface Threshold Offset Overrun Length
18 131 ft / 40 m 7,596 ft / 2,315 m 179.60° 177.21° Concrete 0 ft / 0 m 0 ft / 0 m
36 131 ft / 40 m 7,596 ft / 2,315 m 359.60° 357.21° Concrete 656 ft / 200 m 0 ft / 0 m

LFKB

Details ICAO LFKB (BIA)
Name Bastia Poretta
Region France
Timezone Europe/Paris (UTC+2.0)
Stats Elevation 25 ft / 8 m (AMSL)
Location 42.552508° 9.483709°
Runways 1
Magnetic Variation 2.532° E

METAR

LFKB 211100Z AUTO 12008KT 9999 SCT030/// SCT039/// BKN056/// ///CB 20/17 Q1012 TEMPO TSRA

Decode

TAF

TAF LFKB 210800Z 2109/2209 04008KT 9999 SCT080 BKN120 BECMG 2110/2112 14006KT TEMPO 2111/2115 SHRA FEW020 SCT030TCU PROB30 TEMPO 2112/2115 TSRA SCT020CB BKN030 BECMG 2120/2122 22004KT SCT014 BKN030 TX23/2112Z TN14/2204Z

Decode

Destination Runways

ID Width Length Bearing (true) Bearing (mag) Surface Threshold Offset Overrun Length
16 148 ft / 45 m 8,273 ft / 2,522 m 162.83° 160.30° Concrete 0 ft / 0 m 131 ft / 40 m
34 148 ft / 45 m 8,273 ft / 2,522 m 342.84° 340.31° Concrete 0 ft / 0 m 0 ft / 0 m

Approach Navaids

Runway Type Ident Frequency Range Bearing (true) Bearing (mag) Slope Elevation
34 Localiser BP 111.35 MHz 27 nm / 50 km 342.81° 340.28° - 25 ft / 8 m (AMSL)
34 Glidescope BP 111.35 MHz 27 nm / 50 km 342.81° 340.28° 3.00° 25 ft / 8 m (AMSL)
34 DME BP 111.35 MHz 18 nm / 33 km - - - 69 ft / 21 m (AMSL)

Popular Alternatives